Decoded Metar for KLKR (LANCASTER in SC, USA) (IATA:LKR) | Meteo·Mobile Aviation Weather
aviador You're here:

KLKR Decoded Metar

LANCASTER in SC, USA
Report Time2019-07-24 04:15:00
UTC Time2019-07-24 04:16:11
Flight Rules unknown UNKNOWN
WindCalm
VisibilityN/A
Phenomena:N/A
Clouds:N/A
Expected CloudBase > 400 ft AGL from Temp-Dew spread
CeilingNone
Temp18°C (ISA +4)
Dew Point17°C (94% RH)
QNH1015 hPa
Density Alt1,148 ft
Elevation489 ft
Report Wrong Elevation
Raw Report
METAR KLKR 240415Z AUTO 00000KT 18/17 A2997 RMK AO2=

Extra information for KLKR:More info

Metar Taf Metar & Taf Last 4 Metars F.Rules Stats Wind Profile Meteogram Temp Stats Airport Information Weather charts Add Link Nearby VenuesMetar ALERT Operation Metar Decoded Social comments

AIRNAV info for KLKR